Time;durP1;ratioP1;P1;durP2;ratioP2;P2;SDS_P1;SDS_P2;PMS_P1;PMS_P2;Temp;Humidity;BMP_temperature;BMP_pressure;BME280_temperature;BME280_humidity;BME280_pressure;Samples;Min_cycle;Max_cycle;Signal;HPM_P1;HPM_P2
2021/05/10 00:00:58;;;;;;;1.55;0.70;;;25.70;32.80;;;;;;6111900;29;20051;-82
2021/05/10 00:03:59;;;;;;;2.25;0.57;;;25.50;33.70;;;;;;6129889;29;20090;-83
2021/05/10 00:07:01;;;;;;;5.80;1.45;;;25.40;34.00;;;;;;6128763;29;20351;-82
2021/05/10 00:10:05;;;;;;;2.47;0.80;;;25.30;34.80;;;;;;6120203;29;20090;-83
2021/05/10 00:13:08;;;;;;;2.35;1.00;;;25.20;34.90;;;;;;6133160;29;20032;-82
2021/05/10 00:16:09;;;;;;;1.35;0.80;;;25.10;34.90;;;;;;6116182;29;20054;-82
2021/05/10 00:19:10;;;;;;;4.75;0.88;;;25.00;34.90;;;;;;6119097;29;20023;-82
2021/05/10 00:22:12;;;;;;;1.33;0.88;;;25.00;35.00;;;;;;6117557;29;20426;-82
2021/05/10 00:25:13;;;;;;;2.80;1.00;;;24.90;34.90;;;;;;6120515;29;20039;-83
2021/05/10 00:28:15;;;;;;;3.75;0.90;;;24.90;35.00;;;;;;6117509;29;20035;-82
2021/05/10 00:31:16;;;;;;;2.53;0.70;;;24.80;34.90;;;;;;6115440;29;20035;-82
2021/05/10 00:34:17;;;;;;;1.30;0.57;;;24.80;34.70;;;;;;6114251;29;20084;-82
2021/05/10 00:37:18;;;;;;;2.00;0.90;;;24.80;34.40;;;;;;6115173;29;20024;-83
2021/05/10 00:40:22;;;;;;;1.42;0.73;;;24.90;34.30;;;;;;6106257;29;20028;-82
2021/05/10 00:43:23;;;;;;;0.90;0.60;;;24.90;34.10;;;;;;6118916;29;20046;-83
2021/05/10 00:46:24;;;;;;;2.42;0.60;;;24.90;34.40;;;;;;6114271;29;20455;-82
2021/05/10 00:49:25;;;;;;;2.50;0.70;;;24.90;34.60;;;;;;6119901;29;20098;-82
2021/05/10 00:52:26;;;;;;;1.67;0.50;;;24.90;34.70;;;;;;6110610;29;20138;-82
2021/05/10 00:55:29;;;;;;;1.05;0.60;;;24.80;34.60;;;;;;6125813;29;20028;-82
2021/05/10 00:58:31;;;;;;;3.35;0.90;;;24.80;34.60;;;;;;6112382;29;20039;-82
2021/05/10 01:01:32;;;;;;;3.42;0.82;;;24.80;34.50;;;;;;6104179;29;20462;-82
2021/05/10 01:04:33;;;;;;;3.47;0.60;;;24.80;34.50;;;;;;6110084;29;20039;-82
2021/05/10 01:07:36;;;;;;;1.35;0.70;;;24.80;34.30;;;;;;6122728;29;20028;-82
2021/05/10 01:10:37;;;;;;;4.55;0.98;;;24.80;34.20;;;;;;6117130;29;20050;-81
2021/05/10 01:13:38;;;;;;;2.10;0.75;;;24.80;34.10;;;;;;6126604;29;20032;-83
2021/05/10 01:16:39;;;;;;;3.28;0.60;;;24.90;33.80;;;;;;6136862;29;20063;-83
2021/05/10 01:19:40;;;;;;;2.22;0.90;;;24.90;33.50;;;;;;6121726;29;20036;-83
2021/05/10 01:22:42;;;;;;;1.27;0.60;;;25.00;33.40;;;;;;6115787;29;20422;-83
2021/05/10 01:25:44;;;;;;;2.05;0.65;;;25.00;33.30;;;;;;6121083;29;20043;-82
2021/05/10 01:28:46;;;;;;;4.40;0.80;;;25.00;33.20;;;;;;6112889;29;20473;-83
2021/05/10 01:31:47;;;;;;;2.60;0.75;;;25.10;33.00;;;;;;6110426;29;20032;-81
2021/05/10 01:34:48;;;;;;;2.88;0.80;;;25.10;32.90;;;;;;6118313;29;20115;-81
2021/05/10 01:37:50;;;;;;;2.53;0.93;;;25.10;32.70;;;;;;6111158;29;20335;-81
2021/05/10 01:40:51;;;;;;;1.15;0.70;;;25.10;32.50;;;;;;6112186;29;20027;-83
2021/05/10 01:43:52;;;;;;;3.40;0.90;;;25.20;32.40;;;;;;6123958;29;20444;-83
2021/05/10 01:46:53;;;;;;;1.77;0.73;;;25.20;32.10;;;;;;6112229;29;20056;-82
2021/05/10 01:49:54;;;;;;;1.45;0.73;;;25.20;32.00;;;;;;6113788;29;20043;-83
2021/05/10 01:52:56;;;;;;;3.03;0.77;;;25.30;31.90;;;;;;6102756;29;20028;-83
2021/05/10 01:55:57;;;;;;;5.40;1.00;;;25.30;31.90;;;;;;6109671;29;20467;-83
2021/05/10 01:58:58;;;;;;;1.67;0.80;;;25.30;31.80;;;;;;6113801;29;20024;-83
2021/05/10 02:01:59;;;;;;;3.22;1.00;;;25.30;31.70;;;;;;6112778;29;20051;-83
2021/05/10 02:05:19;;;;;;;4.68;0.93;;;25.30;31.60;;;;;;6114349;29;20031;-82
2021/05/10 02:08:21;;;;;;;4.82;0.93;;;25.30;31.70;;;;;;6099742;29;20028;-83
2021/05/10 02:11:22;;;;;;;8.68;1.65;;;25.30;31.70;;;;;;6111393;29;20036;-83
2021/05/10 02:14:23;;;;;;;1.83;0.85;;;25.30;31.70;;;;;;6110844;29;20075;-82
2021/05/10 02:17:24;;;;;;;3.50;0.75;;;25.30;31.70;;;;;;6121124;29;20040;-83
2021/05/10 02:20:27;;;;;;;1.95;0.68;;;25.30;31.70;;;;;;6103369;29;20071;-83
2021/05/10 02:23:32;;;;;;;3.10;0.73;;;25.30;31.50;;;;;;6117235;29;20048;-84
2021/05/10 02:26:33;;;;;;;1.63;1.00;;;25.30;31.30;;;;;;6112575;29;20048;-82
2021/05/10 02:29:34;;;;;;;3.25;1.02;;;25.40;31.10;;;;;;6108091;29;20028;-84
2021/05/10 02:32:35;;;;;;;1.88;0.70;;;25.40;31.10;;;;;;6092073;29;20455;-83
2021/05/10 02:35:37;;;;;;;5.43;0.70;;;25.40;31.10;;;;;;6098466;29;20042;-82
2021/05/10 02:38:38;;;;;;;1.48;0.70;;;25.40;31.00;;;;;;6110771;29;20386;-82
2021/05/10 02:41:41;;;;;;;2.65;0.85;;;25.50;31.00;;;;;;6117815;29;20028;-82
2021/05/10 02:44:42;;;;;;;1.00;0.70;;;25.50;31.10;;;;;;6121130;29;20056;-83
2021/05/10 02:47:44;;;;;;;6.07;0.70;;;25.40;31.00;;;;;;6125699;29;20450;-84
2021/05/10 02:50:47;;;;;;;2.15;1.15;;;25.40;31.10;;;;;;6120275;29;20024;-84
2021/05/10 02:53:47;;;;;;;5.72;0.90;;;25.40;31.10;;;;;;6109573;29;20039;-84
2021/05/10 02:56:50;;;;;;;3.08;0.90;;;25.40;31.10;;;;;;6108946;29;20031;-84
2021/05/10 02:59:51;;;;;;;3.38;0.93;;;25.40;30.90;;;;;;6099926;29;20102;-83
2021/05/10 03:02:55;;;;;;;2.42;0.95;;;25.50;30.90;;;;;;6101133;29;20043;-84
2021/05/10 03:05:56;;;;;;;3.05;1.00;;;25.50;30.80;;;;;;6112297;29;20046;-84
2021/05/10 03:08:57;;;;;;;0.85;0.60;;;25.60;30.70;;;;;;6109659;29;20459;-84
2021/05/10 03:11:59;;;;;;;7.45;1.10;;;25.60;30.60;;;;;;6111187;29;20035;-84
2021/05/10 03:15:01;;;;;;;1.75;0.63;;;25.60;30.50;;;;;;6106318;29;20040;-84
2021/05/10 03:18:04;;;;;;;6.22;1.08;;;25.70;30.40;;;;;;6120892;29;20064;-84
2021/05/10 03:21:05;;;;;;;2.17;0.70;;;25.70;30.40;;;;;;6112572;29;20521;-84
2021/05/10 03:24:07;;;;;;;7.07;0.90;;;25.80;30.40;;;;;;6107795;29;20467;-84
2021/05/10 03:27:08;;;;;;;2.65;0.75;;;25.80;30.40;;;;;;6109450;29;20055;-84
2021/05/10 03:30:16;;;;;;;5.13;0.80;;;25.80;30.40;;;;;;6116697;29;20028;-85
2021/05/10 03:33:17;;;;;;;6.38;0.88;;;25.80;30.30;;;;;;6118290;29;20055;-85
2021/05/10 03:40:41;;;;;;;1.52;0.80;;;25.80;30.40;;;;;;6124237;29;20447;-85
2021/05/10 03:43:42;;;;;;;2.88;0.75;;;25.90;30.30;;;;;;6106789;29;20031;-85
2021/05/10 03:46:43;;;;;;;4.82;0.80;;;25.90;30.60;;;;;;6108321;29;20406;-83
2021/05/10 03:49:44;;;;;;;7.00;1.00;;;25.60;31.70;;;;;;6125345;29;20127;-84
2021/05/10 03:52:48;;;;;;;1.00;0.70;;;25.20;33.10;;;;;;6118160;29;20051;-84
2021/05/10 03:55:50;;;;;;;2.60;1.10;;;24.80;34.70;;;;;;6105265;29;20028;-83
2021/05/10 03:58:51;;;;;;;2.22;0.73;;;24.60;35.50;;;;;;6102457;29;20032;-82
2021/05/10 04:01:52;;;;;;;2.58;1.00;;;24.50;35.90;;;;;;6102332;29;20032;-83
2021/05/10 04:05:08;;;;;;;5.80;1.10;;;24.50;36.70;;;;;;6108553;29;20028;-83
2021/05/10 04:11:33;;;;;;;5.47;0.95;;;24.30;37.20;;;;;;6117687;29;20045;-84
2021/05/10 04:14:34;;;;;;;3.72;1.02;;;24.30;37.50;;;;;;6106323;29;20023;-84
2021/05/10 04:17:35;;;;;;;2.17;0.80;;;24.30;37.20;;;;;;6127970;29;20058;-84
2021/05/10 04:20:36;;;;;;;4.55;1.20;;;24.40;37.30;;;;;;6117903;29;20071;-84
2021/05/10 04:23:37;;;;;;;7.15;1.33;;;24.50;37.40;;;;;;6114028;29;20028;-83
2021/05/10 04:26:38;;;;;;;4.78;0.82;;;24.50;37.70;;;;;;6115316;29;20027;-84
2021/05/10 04:29:39;;;;;;;2.33;0.80;;;24.20;38.50;;;;;;6114244;29;20039;-85
2021/05/10 04:32:41;;;;;;;6.07;1.40;;;23.90;39.60;;;;;;6134093;29;20052;-83
2021/05/10 04:35:43;;;;;;;4.13;0.90;;;23.50;40.60;;;;;;6122709;29;20032;-83
2021/05/10 04:38:45;;;;;;;1.83;0.70;;;23.30;41.00;;;;;;6128809;29;20028;-85
2021/05/10 04:41:46;;;;;;;4.38;0.90;;;23.20;42.10;;;;;;6125561;29;20082;-83
2021/05/10 04:44:47;;;;;;;5.43;1.15;;;23.10;42.40;;;;;;6134955;29;20408;-84
2021/05/10 04:47:49;;;;;;;1.27;0.73;;;23.10;42.60;;;;;;6100553;29;20455;-83
2021/05/10 04:50:50;;;;;;;1.42;0.77;;;23.10;42.30;;;;;;6111993;29;20071;-84
2021/05/10 04:53:51;;;;;;;1.75;0.90;;;23.20;42.40;;;;;;6126288;29;20517;-83
2021/05/10 04:56:52;;;;;;;5.53;1.13;;;23.30;42.00;;;;;;6100742;29;20136;-84
2021/05/10 04:59:53;;;;;;;7.43;0.77;;;23.40;41.60;;;;;;6124309;29;20051;-83
2021/05/10 05:02:54;;;;;;;4.10;0.90;;;23.40;41.50;;;;;;6123326;29;20059;-83
2021/05/10 05:05:55;;;;;;;2.80;0.80;;;23.50;41.10;;;;;;6108434;29;20031;-85
2021/05/10 05:08:56;;;;;;;4.03;1.15;;;23.50;40.80;;;;;;6112793;29;20047;-84
2021/05/10 05:12:01;;;;;;;2.33;0.68;;;23.60;40.90;;;;;;6105506;29;20422;-83
2021/05/10 05:15:03;;;;;;;4.03;0.95;;;23.60;40.50;;;;;;6115541;29;20480;-84
2021/05/10 05:18:07;;;;;;;4.80;0.90;;;23.50;40.90;;;;;;6101429;29;20366;-83
2021/05/10 05:21:08;;;;;;;1.52;0.60;;;23.20;41.60;;;;;;6112682;29;20073;-83
2021/05/10 05:24:09;;;;;;;17.63;1.40;;;23.00;42.20;;;;;;6123534;29;20066;-83
2021/05/10 05:27:12;;;;;;;2.42;0.85;;;23.00;42.50;;;;;;6102532;29;20036;-82
2021/05/10 05:30:16;;;;;;;1.25;0.60;;;23.10;42.30;;;;;;6115816;29;20127;-82
2021/05/10 05:33:18;;;;;;;4.10;0.80;;;23.30;41.90;;;;;;6110537;29;20075;-84
2021/05/10 05:36:19;;;;;;;6.30;0.82;;;23.30;42.00;;;;;;6102141;29;20029;-85
2021/05/10 05:39:21;;;;;;;2.67;0.90;;;23.20;43.10;;;;;;6107968;29;20044;-84
2021/05/10 05:42:22;;;;;;;1.77;0.68;;;22.80;44.20;;;;;;6108778;29;20091;-83
2021/05/10 05:45:24;;;;;;;3.13;1.10;;;22.50;46.00;;;;;;6106006;29;20023;-85
2021/05/10 05:48:25;;;;;;;3.50;1.08;;;22.40;46.20;;;;;;6107669;29;20115;-83
2021/05/10 05:51:27;;;;;;;6.25;1.20;;;22.20;46.80;;;;;;6117405;29;20039;-85
2021/05/10 05:54:28;;;;;;;1.20;0.90;;;22.20;46.50;;;;;;6103343;29;20103;-84
2021/05/10 05:57:29;;;;;;;2.55;1.00;;;22.20;46.40;;;;;;6119264;29;20024;-85
2021/05/10 06:00:41;;;;;;;1.50;1.00;;;22.20;46.20;;;;;;6109733;29;20155;-84
2021/05/10 06:03:48;;;;;;;2.22;0.80;;;22.20;46.00;;;;;;6114088;29;20036;-81
2021/05/10 06:06:51;;;;;;;1.83;0.85;;;22.40;46.40;;;;;;6100114;29;20027;-82
2021/05/10 06:09:52;;;;;;;12.35;1.35;;;22.30;46.50;;;;;;6097368;29;20467;-83
2021/05/10 06:12:53;;;;;;;4.95;1.00;;;22.20;47.30;;;;;;6110059;29;20043;-86
2021/05/10 06:15:55;;;;;;;2.72;0.80;;;22.20;46.70;;;;;;6093787;29;20028;-87
2021/05/10 06:18:57;;;;;;;3.90;1.13;;;22.30;47.00;;;;;;6116781;29;20033;-86
2021/05/10 06:22:00;;;;;;;1.70;1.00;;;22.30;47.50;;;;;;6114861;29;20036;-86
2021/05/10 06:25:02;;;;;;;3.78;1.00;;;22.30;47.50;;;;;;6110566;29;20058;-84
2021/05/10 06:28:06;;;;;;;4.38;0.90;;;22.40;47.20;;;;;;6118240;29;20032;-87
2021/05/10 06:31:08;;;;;;;2.80;0.82;;;22.40;47.50;;;;;;6118687;29;20069;-88
2021/05/10 06:34:15;;;;;;;2.35;1.20;;;22.50;47.50;;;;;;6121879;29;20056;-87
2021/05/10 06:37:32;;;;;;;2.38;0.82;;;22.50;47.60;;;;;;6087309;29;20431;-86
2021/05/10 06:40:34;;;;;;;3.00;0.77;;;22.60;47.70;;;;;;6108615;29;20475;-87
2021/05/10 06:43:35;;;;;;;1.75;0.70;;;22.60;47.30;;;;;;6113761;29;20055;-87
2021/05/10 06:46:37;;;;;;;4.82;0.80;;;22.60;47.40;;;;;;6114551;29;20031;-87
2021/05/10 06:49:38;;;;;;;2.47;0.93;;;22.70;47.20;;;;;;6133274;29;20032;-88
2021/05/10 06:52:39;;;;;;;5.10;1.10;;;22.80;46.90;;;;;;6126456;29;20027;-85
2021/05/10 06:55:40;;;;;;;3.13;1.00;;;22.90;46.70;;;;;;6117794;29;20024;-86
2021/05/10 06:58:42;;;;;;;4.15;1.20;;;23.10;46.60;;;;;;6116362;29;20023;-84
2021/05/10 07:01:43;;;;;;;2.80;0.93;;;23.20;46.40;;;;;;6112843;29;20467;-86
2021/05/10 07:04:44;;;;;;;3.60;1.35;;;23.30;46.40;;;;;;6122377;29;20024;-87
2021/05/10 07:07:46;;;;;;;4.95;1.27;;;23.30;46.80;;;;;;6118989;29;20032;-81
2021/05/10 07:10:50;;;;;;;7.60;1.38;;;23.30;47.50;;;;;;6113316;29;20067;-79
2021/05/10 07:13:53;;;;;;;4.72;1.40;;;23.30;47.60;;;;;;6092892;29;20040;-80
2021/05/10 07:16:54;;;;;;;7.30;1.27;;;23.30;47.90;;;;;;6102546;29;20036;-80
2021/05/10 07:19:55;;;;;;;3.38;1.30;;;23.30;48.10;;;;;;6103549;29;20024;-79
2021/05/10 07:22:56;;;;;;;6.03;1.45;;;23.20;48.50;;;;;;6103069;29;20103;-79
2021/05/10 07:25:57;;;;;;;1.75;1.00;;;23.00;49.30;;;;;;6084901;29;20107;-81
2021/05/10 07:29:00;;;;;;;3.08;1.40;;;22.90;49.60;;;;;;6101586;29;20103;-81
2021/05/10 07:32:02;;;;;;;7.28;1.95;;;22.70;49.90;;;;;;6101952;29;20039;-81
2021/05/10 07:35:03;;;;;;;2.20;1.27;;;22.70;50.20;;;;;;6080222;29;20052;-81
2021/05/10 07:38:05;;;;;;;1.90;0.90;;;22.60;50.40;;;;;;6092834;29;20089;-82
2021/05/10 07:41:06;;;;;;;3.95;0.85;;;22.50;49.80;;;;;;6078785;29;20033;-83
2021/05/10 07:44:09;;;;;;;10.18;1.15;;;22.50;49.50;;;;;;6074216;29;20558;-81
2021/05/10 07:47:10;;;;;;;4.00;1.02;;;22.50;49.20;;;;;;6051601;29;20041;-81
2021/05/10 07:50:12;;;;;;;2.22;0.70;;;22.50;49.30;;;;;;6097511;29;20083;-81
2021/05/10 07:53:14;;;;;;;3.40;1.05;;;22.50;50.10;;;;;;6086835;29;20112;-81
2021/05/10 07:56:15;;;;;;;2.60;0.82;;;22.40;50.90;;;;;;6080692;29;20085;-81
2021/05/10 07:59:16;;;;;;;4.70;0.93;;;22.10;51.40;;;;;;6100296;29;20043;-81
2021/05/10 08:02:23;;;;;;;1.92;1.00;;;22.00;51.80;;;;;;6083299;29;20063;-80
2021/05/10 08:05:24;;;;;;;5.90;1.73;;;21.80;52.30;;;;;;6097622;29;20063;-80
2021/05/10 08:08:26;;;;;;;7.82;1.25;;;21.80;52.30;;;;;;6085742;29;20390;-82
2021/05/10 08:11:27;;;;;;;6.60;1.48;;;21.80;52.40;;;;;;6093978;29;20032;-82
2021/05/10 08:14:29;;;;;;;3.63;1.10;;;21.90;52.30;;;;;;6093713;29;20033;-80
2021/05/10 08:17:33;;;;;;;4.65;1.65;;;22.00;52.00;;;;;;6084822;29;20313;-81
2021/05/10 08:20:34;;;;;;;3.35;1.30;;;22.20;52.00;;;;;;6086646;29;20032;-82
2021/05/10 08:23:35;;;;;;;10.70;1.40;;;22.30;52.00;;;;;;6099637;29;20033;-81
2021/05/10 08:26:37;;;;;;;2.30;1.00;;;22.50;52.00;;;;;;6061733;29;20175;-81
2021/05/10 08:29:39;;;;;;;3.78;1.48;;;22.50;51.80;;;;;;6065928;29;20029;-80
2021/05/10 08:32:40;;;;;;;3.47;1.17;;;22.60;51.80;;;;;;6051456;29;20429;-82
2021/05/10 08:35:42;;;;;;;3.40;1.15;;;22.70;51.90;;;;;;6092674;29;20356;-82
2021/05/10 08:38:45;;;;;;;4.72;1.70;;;22.70;51.80;;;;;;6084675;29;20028;-82
2021/05/10 08:41:46;;;;;;;10.05;1.55;;;22.70;51.70;;;;;;6105611;29;20051;-82
2021/05/10 08:44:48;;;;;;;6.13;1.90;;;22.80;51.80;;;;;;6089322;29;20051;-82
2021/05/10 08:47:50;;;;;;;8.00;2.25;;;22.80;51.90;;;;;;6093465;29;20039;-81
2021/05/10 08:50:53;;;;;;;11.32;1.90;;;22.80;52.10;;;;;;6103646;29;20040;-82
2021/05/10 08:53:57;;;;;;;5.25;1.33;;;22.80;52.70;;;;;;6102340;29;20447;-81
2021/05/10 08:57:02;;;;;;;4.15;1.20;;;22.70;52.90;;;;;;6089619;29;20123;-81
2021/05/10 09:00:04;;;;;;;16.85;1.95;;;22.70;54.20;;;;;;6101333;29;20040;-81
2021/05/10 09:03:11;;;;;;;16.58;3.33;;;22.60;53.60;;;;;;6089396;29;20055;-82
2021/05/10 09:06:33;;;;;;;16.17;3.28;;;22.60;53.70;;;;;;6105756;29;20049;-82
2021/05/10 09:09:52;;;;;;;24.45;8.63;;;22.60;53.70;;;;;;6067677;29;20047;-82
2021/05/10 09:12:56;;;;;;;14.50;3.78;;;22.50;53.70;;;;;;6089643;29;20098;-82
2021/05/10 09:16:02;;;;;;;7.13;2.28;;;22.50;53.50;;;;;;6106551;29;20036;-82
2021/05/10 09:19:03;;;;;;;5.35;1.35;;;22.60;53.70;;;;;;6107298;29;20498;-81
2021/05/10 09:22:04;;;;;;;7.78;1.50;;;22.60;53.60;;;;;;6071221;29;20042;-82
2021/05/10 09:25:06;;;;;;;4.78;1.20;;;22.60;53.10;;;;;;6108785;29;20092;-82
2021/05/10 09:28:18;;;;;;;3.55;1.40;;;22.60;53.60;;;;;;6105904;29;20037;-81
2021/05/10 09:31:21;;;;;;;3.40;1.58;;;22.50;53.80;;;;;;6107543;29;20420;-82
2021/05/10 09:34:24;;;;;;;5.78;1.42;;;22.30;54.30;;;;;;6087316;29;20060;-82
2021/05/10 09:37:28;;;;;;;4.00;1.60;;;22.20;55.00;;;;;;6104632;29;20032;-80
2021/05/10 09:40:54;;;;;;;4.45;1.20;;;22.00;55.50;;;;;;6104991;29;20062;-81
2021/05/10 09:44:00;;;;;;;3.10;1.60;;;21.80;55.10;;;;;;6082825;29;20043;-81
2021/05/10 09:47:02;;;;;;;5.38;1.70;;;21.70;55.50;;;;;;6104686;29;20294;-81
2021/05/10 09:50:04;;;;;;;4.10;1.60;;;21.50;56.00;;;;;;6110069;29;20072;-82
2021/05/10 09:53:09;;;;;;;6.57;1.83;;;21.60;56.40;;;;;;6120755;29;20455;-81
2021/05/10 09:56:32;;;;;;;6.45;1.70;;;21.50;56.50;;;;;;6119331;29;20483;-81
2021/05/10 09:59:33;;;;;;;4.95;1.42;;;21.40;56.60;;;;;;6103232;29;20345;-82
2021/05/10 10:02:35;;;;;;;5.03;2.20;;;21.30;56.90;;;;;;6101655;29;20043;-82
2021/05/10 10:05:36;;;;;;;4.10;1.40;;;21.20;57.00;;;;;;6120625;29;20118;-81
2021/05/10 10:08:42;;;;;;;0.63;0.38;;;21.10;57.10;;;;;;6119874;29;20029;-81
2021/05/10 10:11:43;;;;;;;0.90;0.55;;;21.10;56.50;;;;;;6114002;29;20511;-82
2021/05/10 10:14:44;;;;;;;12.00;4.40;;;21.20;54.10;;;;;;6119619;29;20028;-80
2021/05/10 10:17:46;;;;;;;1.38;0.50;;;21.40;51.90;;;;;;6104002;29;20052;-80
2021/05/10 10:20:49;;;;;;;0.77;0.45;;;21.60;50.80;;;;;;6101858;29;20043;-80
2021/05/10 10:24:05;;;;;;;2.22;0.68;;;21.80;50.30;;;;;;6110291;29;20458;-80
2021/05/10 10:27:10;;;;;;;1.15;0.35;;;21.90;49.90;;;;;;6091525;29;20059;-82
2021/05/10 10:30:12;;;;;;;1.13;0.30;;;22.10;48.90;;;;;;6073644;29;20032;-81
2021/05/10 10:33:41;;;;;;;0.68;0.47;;;22.30;48.70;;;;;;6110764;29;20123;-81
2021/05/10 10:36:49;;;;;;;1.33;0.50;;;22.50;48.00;;;;;;6109727;29;20209;-81
2021/05/10 10:39:53;;;;;;;3.22;0.60;;;22.70;47.60;;;;;;6105933;29;20066;-79
2021/05/10 10:43:24;;;;;;;1.60;0.40;;;22.80;47.30;;;;;;6081089;29;20041;-79
2021/05/10 10:46:31;;;;;;;0.68;0.43;;;22.90;47.00;;;;;;6091581;29;20032;-79
2021/05/10 10:49:43;;;;;;;2.00;1.15;;;23.10;46.80;;;;;;6114369;29;20378;-81
2021/05/10 10:52:58;;;;;;;1.20;0.32;;;23.20;46.30;;;;;;6105978;29;20028;-82
2021/05/10 10:55:59;;;;;;;0.95;0.20;;;23.20;45.50;;;;;;6091532;29;20114;-80
2021/05/10 10:59:23;;;;;;;0.30;0.30;;;23.20;44.40;;;;;;6090776;29;20050;-79
2021/05/10 11:02:29;;;;;;;4.68;0.55;;;23.30;44.60;;;;;;6102687;29;20043;-79
2021/05/10 11:05:30;;;;;;;5.53;1.85;;;23.30;44.80;;;;;;6090600;29;20041;-81
2021/05/10 11:08:41;;;;;;;3.40;0.85;;;23.30;45.10;;;;;;6104838;29;20028;-80
2021/05/10 11:11:42;;;;;;;4.75;1.13;;;23.40;45.90;;;;;;6083524;29;20044;-79
2021/05/10 11:14:43;;;;;;;2.33;0.80;;;23.30;46.10;;;;;;6094207;29;20123;-78
2021/05/10 11:17:54;;;;;;;1.17;0.55;;;23.30;46.40;;;;;;6099990;29;20024;-80
2021/05/10 11:20:55;;;;;;;96.38;44.80;;;23.30;46.60;;;;;;6110454;29;20038;-78
2021/05/10 11:23:58;;;;;;;7.38;1.40;;;23.30;46.30;;;;;;6110775;29;20031;-78
2021/05/10 11:27:02;;;;;;;0.65;0.55;;;23.20;46.20;;;;;;6117172;29;20032;-80
2021/05/10 11:30:03;;;;;;;0.88;0.57;;;23.10;46.30;;;;;;6098969;29;20076;-80
2021/05/10 11:33:07;;;;;;;2.15;0.52;;;23.00;46.30;;;;;;6098440;29;20342;-80
2021/05/10 11:36:18;;;;;;;2.00;0.60;;;23.00;46.30;;;;;;6097938;29;20455;-80
2021/05/10 11:39:26;;;;;;;1.40;0.40;;;23.00;46.60;;;;;;6118509;29;20042;-77
2021/05/10 11:42:28;;;;;;;3.78;0.43;;;22.90;46.80;;;;;;6096733;29;20439;-79
2021/05/10 11:45:42;;;;;;;2.97;0.40;;;22.90;46.90;;;;;;6112165;29;20048;-79
2021/05/10 11:48:43;;;;;;;3.38;1.10;;;22.80;47.10;;;;;;6110036;29;20029;-79
2021/05/10 11:51:46;;;;;;;4.63;0.65;;;22.80;47.40;;;;;;6111886;29;20032;-79
2021/05/10 11:54:58;;;;;;;1.88;0.60;;;22.80;47.60;;;;;;6097986;29;20033;-79
2021/05/10 11:58:01;;;;;;;1.25;0.63;;;22.70;47.80;;;;;;6101133;29;20460;-79
2021/05/10 12:01:02;;;;;;;1.13;0.52;;;22.70;47.90;;;;;;6099892;29;20463;-79
2021/05/10 12:04:22;;;;;;;6.57;3.30;;;22.60;48.20;;;;;;6092765;29;20051;-80
2021/05/10 12:07:26;;;;;;;15.63;7.10;;;22.60;48.60;;;;;;6089128;29;20039;-79
2021/05/10 12:10:28;;;;;;;8.10;3.30;;;22.50;49.00;;;;;;6071567;29;20051;-79
2021/05/10 12:13:30;;;;;;;2.53;1.45;;;22.40;49.80;;;;;;6084556;29;20032;-79
2021/05/10 12:16:31;;;;;;;3.17;1.30;;;22.40;50.50;;;;;;6107777;29;20036;-78
2021/05/10 12:20:00;;;;;;;4.68;1.10;;;22.30;51.10;;;;;;6089227;29;20055;-79
2021/05/10 12:23:03;;;;;;;5.40;1.10;;;22.20;52.40;;;;;;6100576;29;20028;-79
2021/05/10 12:26:11;;;;;;;2.58;1.00;;;22.10;52.20;;;;;;6098369;29;20044;-78
2021/05/10 12:29:13;;;;;;;9.20;3.63;;;22.00;52.90;;;;;;6104242;29;20374;-78
2021/05/10 12:32:15;;;;;;;4.03;1.35;;;22.00;53.50;;;;;;6091559;29;20029;-81
2021/05/10 12:35:25;;;;;;;3.90;1.20;;;21.90;53.80;;;;;;6104682;29;20127;-80
2021/05/10 12:38:27;;;;;;;6.80;1.85;;;21.80;54.30;;;;;;6099326;29;20465;-79
2021/05/10 12:41:30;;;;;;;4.20;1.13;;;21.80;54.70;;;;;;6104856;29;20056;-80
2021/05/10 12:44:32;;;;;;;9.77;2.85;;;21.70;55.10;;;;;;6097938;29;20479;-79
2021/05/10 12:47:44;;;;;;;12.95;5.05;;;21.70;55.50;;;;;;6109462;29;20080;-80
2021/05/10 12:50:54;;;;;;;9.75;4.60;;;21.60;55.90;;;;;;6093310;29;20028;-78
2021/05/10 12:54:05;;;;;;;1.30;1.05;;;21.50;55.90;;;;;;6092339;29;20036;-79
2021/05/10 12:57:07;;;;;;;12.25;6.05;;;21.40;56.00;;;;;;6108566;29;20024;-79
2021/05/10 13:00:24;;;;;;;3.40;1.13;;;21.40;56.00;;;;;;6105106;29;20047;-79
2021/05/10 13:03:28;;;;;;;5.32;0.95;;;21.30;56.10;;;;;;6086032;29;20039;-79
2021/05/10 13:06:37;;;;;;;3.83;0.95;;;21.20;56.60;;;;;;6104305;29;20036;-79
2021/05/10 13:09:38;;;;;;;3.22;0.80;;;21.10;56.80;;;;;;6099523;29;20072;-79
2021/05/10 13:12:50;;;;;;;1.77;0.70;;;21.00;57.10;;;;;;6104835;29;20044;-79
2021/05/10 13:15:59;;;;;;;1.58;0.73;;;21.00;57.30;;;;;;6106920;29;20040;-79
2021/05/10 13:23:03;;;;;;;2.38;0.80;;;20.90;57.70;;;;;;6087329;29;20369;-79
2021/05/10 13:32:48;;;;;;;1.15;0.80;;;20.80;57.70;;;;;;6107724;29;20471;-79
2021/05/10 13:35:55;;;;;;;4.35;2.08;;;20.90;57.80;;;;;;6103707;29;20047;-79
2021/05/10 13:38:57;;;;;;;1.95;1.27;;;20.90;57.90;;;;;;6096597;29;20032;-79
2021/05/10 13:45:04;;;;;;;1.42;0.70;;;20.80;57.90;;;;;;6091056;29;20028;-79
2021/05/10 13:48:05;;;;;;;3.13;0.70;;;20.80;58.00;;;;;;6093861;29;20115;-79
2021/05/10 13:51:06;;;;;;;1.30;0.70;;;20.70;58.00;;;;;;6101993;29;20419;-79
2021/05/10 13:54:07;;;;;;;8.23;2.83;;;20.70;58.30;;;;;;6107202;29;20372;-78
2021/05/10 13:57:08;;;;;;;8.77;1.02;;;20.70;58.30;;;;;;6092299;29;20028;-79
2021/05/10 14:00:10;;;;;;;25.15;2.15;;;20.70;58.40;;;;;;6100907;29;20036;-79
2021/05/10 14:03:11;;;;;;;19.65;2.25;;;20.60;58.60;;;;;;6091309;29;20044;-78
2021/05/10 14:06:12;;;;;;;53.15;3.83;;;20.60;58.90;;;;;;6079383;29;20028;-79
2021/05/10 14:09:14;;;;;;;25.58;3.15;;;20.50;59.00;;;;;;6087909;29;20535;-79
2021/05/10 14:12:15;;;;;;;25.08;2.92;;;20.50;59.00;;;;;;6099995;29;20063;-79
2021/05/10 14:15:16;;;;;;;12.18;2.10;;;20.50;59.00;;;;;;6101985;29;20053;-80
2021/05/10 14:18:22;;;;;;;6.75;1.10;;;20.50;58.90;;;;;;6093752;29;20316;-78
2021/05/10 14:24:43;;;;;;;66.90;5.72;;;20.40;59.00;;;;;;6103765;29;20032;-78
2021/05/10 14:27:45;;;;;;;57.85;6.45;;;20.30;59.00;;;;;;6084414;29;20035;-78
2021/05/10 14:30:46;;;;;;;5.30;2.00;;;20.30;59.10;;;;;;6125961;29;20431;-78
2021/05/10 14:33:47;;;;;;;17.80;2.83;;;20.30;59.30;;;;;;6116884;29;20070;-79
2021/05/10 14:36:49;;;;;;;27.30;3.28;;;20.20;59.40;;;;;;6114735;29;20020;-81
2021/05/10 14:39:50;;;;;;;16.20;2.65;;;20.20;59.70;;;;;;6088380;29;20028;-79
2021/05/10 14:42:51;;;;;;;32.40;2.53;;;20.20;59.90;;;;;;6083511;29;20048;-79
2021/05/10 14:45:53;;;;;;;157.32;8.63;;;20.20;60.50;;;;;;6099227;29;20095;-79
2021/05/10 14:48:54;;;;;;;24.25;2.60;;;20.20;61.30;;;;;;6102017;29;20024;-79
2021/05/10 14:51:56;;;;;;;53.28;3.85;;;20.10;61.90;;;;;;6100796;29;20028;-80
2021/05/10 14:54:57;;;;;;;59.50;4.25;;;20.10;62.10;;;;;;6112437;29;20024;-80
2021/05/10 14:57:58;;;;;;;16.13;4.68;;;20.10;62.30;;;;;;6091038;29;20031;-80
2021/05/10 15:00:59;;;;;;;29.73;10.23;;;20.20;62.50;;;;;;6100327;29;20039;-81
2021/05/10 15:04:02;;;;;;;43.95;5.55;;;20.20;62.50;;;;;;6105102;29;20032;-78
2021/05/10 15:07:03;;;;;;;21.00;3.05;;;20.20;63.00;;;;;;6105345;29;20036;-78
2021/05/10 15:10:07;;;;;;;22.00;3.28;;;20.10;64.00;;;;;;6095394;29;20031;-79
2021/05/10 15:13:10;;;;;;;14.75;2.55;;;20.10;63.20;;;;;;6108436;29;20373;-80
2021/05/10 15:16:11;;;;;;;20.75;1.98;;;20.20;63.10;;;;;;6076308;29;20040;-79
2021/05/10 15:19:12;;;;;;;3.10;0.88;;;20.20;62.90;;;;;;6101443;29;20099;-80
2021/05/10 15:22:13;;;;;;;7.35;1.15;;;20.20;62.40;;;;;;6106570;29;20032;-79
2021/05/10 15:25:14;;;;;;;6.53;1.95;;;20.20;61.90;;;;;;6114847;29;20031;-79
2021/05/10 15:28:16;;;;;;;20.98;1.50;;;20.20;61.60;;;;;;6101789;29;20050;-78
2021/05/10 15:31:17;;;;;;;25.83;2.28;;;20.20;61.60;;;;;;6097902;29;20055;-79
2021/05/10 15:34:22;;;;;;;3.10;0.60;;;20.20;61.70;;;;;;6098389;29;20055;-80
2021/05/10 15:37:23;;;;;;;7.82;1.00;;;20.20;62.00;;;;;;6102568;29;20032;-81
2021/05/10 15:40:24;;;;;;;2.30;1.30;;;20.20;61.90;;;;;;6095517;29;20035;-78
2021/05/10 15:43:25;;;;;;;10.18;1.08;;;20.10;62.60;;;;;;6104597;29;20032;-79
2021/05/10 15:46:26;;;;;;;5.22;1.00;;;20.10;63.10;;;;;;6108316;29;20028;-79
2021/05/10 15:49:28;;;;;;;6.93;1.65;;;20.10;63.20;;;;;;6105032;29;20474;-78
2021/05/10 15:52:29;;;;;;;3.35;0.82;;;20.10;63.40;;;;;;6105848;29;20044;-77
2021/05/10 15:55:30;;;;;;;9.05;0.80;;;20.10;63.50;;;;;;6103409;29;20123;-79
2021/05/10 15:58:35;;;;;;;6.95;2.03;;;20.10;63.20;;;;;;6087047;29;20036;-78
2021/05/10 16:01:38;;;;;;;9.18;3.28;;;20.10;63.30;;;;;;6085743;29;20024;-77
2021/05/10 16:04:39;;;;;;;3.80;1.52;;;20.00;63.80;;;;;;6097581;29;20099;-77
2021/05/10 16:07:40;;;;;;;15.70;6.15;;;20.00;63.70;;;;;;6085792;29;20037;-78
2021/05/10 16:10:45;;;;;;;4.90;1.55;;;20.00;63.60;;;;;;6106286;29;20064;-77
2021/05/10 16:13:46;;;;;;;12.65;6.20;;;19.90;63.50;;;;;;6116294;29;20028;-77
2021/05/10 16:16:47;;;;;;;28.17;11.07;;;19.90;63.40;;;;;;6122854;29;20031;-76